Terminal Aerodrome Forecast
Issued by NWS Cleveland, OH

Home | Current Version | Previous Version | Text Only | Print | Product List | Glossary Off
Versions: 1 2 3 4 5 6 7 8 9 10 11 12 13 14

000
FTUS41 KCLE 311132
TAFTOL
TAF
KTOL 311132Z 3112/0112 24006KT P6SM SKC
     FM311600 26012G20KT P6SM SCT050
     FM312200 28010KT P6SM VCTS BKN050CB BKN150
     FM010100 26006KT P6SM SKC=

USA.gov is the U.S. government's official web portal to all federal, state and local government web resources and services.